createdAt,value
2023-02-12T00:00:19.017Z,4.39
2023-02-12T00:02:46.973Z,4.40
2023-02-12T00:05:16.435Z,4.43
2023-02-12T00:07:45.737Z,4.44
2023-02-12T00:10:13.352Z,4.47
2023-02-12T00:12:40.940Z,4.49
2023-02-12T00:15:09.541Z,4.50
2023-02-12T00:17:37.141Z,4.53
2023-02-12T00:20:05.224Z,4.53
2023-02-12T00:22:33.079Z,4.53
2023-02-12T00:25:01.997Z,4.52
2023-02-12T00:27:30.053Z,4.53
2023-02-12T00:29:57.664Z,4.53
2023-02-12T00:32:26.917Z,4.51
2023-02-12T00:34:54.528Z,4.48
2023-02-12T00:37:22.608Z,4.49
2023-02-12T00:39:50.313Z,4.48
2023-02-12T00:42:19.553Z,4.51
2023-02-12T00:44:48.351Z,4.49
2023-02-12T00:47:16.917Z,4.50
2023-02-12T00:49:44.902Z,4.51
2023-02-12T00:52:12.620Z,4.49
2023-02-12T00:54:41.024Z,4.48
2023-02-12T00:57:08.613Z,4.47
2023-02-12T00:59:40.064Z,4.47
2023-02-12T01:02:07.661Z,4.47
2023-02-12T01:04:35.872Z,4.48
2023-02-12T01:07:03.620Z,4.51
2023-02-12T01:09:31.628Z,4.53
2023-02-12T01:12:00.823Z,4.49
2023-02-12T01:14:30.018Z,4.41
2023-02-12T01:16:58.948Z,4.40
2023-02-12T01:19:28.155Z,4.39
2023-02-12T01:21:55.839Z,4.38
2023-02-12T01:24:23.773Z,4.40
2023-02-12T01:26:51.586Z,4.34
2023-02-12T01:29:20.312Z,4.35
2023-02-12T01:31:47.996Z,4.40
2023-02-12T01:34:17.703Z,4.41
2023-02-12T01:36:45.703Z,4.42
2023-02-12T01:39:13.855Z,4.42
2023-02-12T01:41:44.221Z,4.40
2023-02-12T01:44:16.738Z,4.37
2023-02-12T01:46:48.098Z,4.39
2023-02-12T01:49:22.821Z,4.40
2023-02-12T01:51:54.251Z,4.36
2023-02-12T01:54:25.729Z,4.38
2023-02-12T01:56:54.210Z,4.38
2023-02-12T01:59:23.191Z,4.36
2023-02-12T02:01:50.898Z,4.32
2023-02-12T02:04:26.313Z,4.33
2023-02-12T02:06:58.346Z,4.29
2023-02-12T02:09:28.339Z,4.26
2023-02-12T02:12:14.141Z,4.28
2023-02-12T02:14:43.690Z,4.31
2023-02-12T02:17:25.046Z,4.33
2023-02-12T02:20:28.810Z,4.35
2023-02-12T02:23:10.533Z,4.32
2023-02-12T02:25:54.083Z,4.29
2023-02-12T02:28:53.012Z,4.29
2023-02-12T02:31:27.596Z,4.29
2023-02-12T02:34:01.086Z,4.22
2023-02-12T02:36:41.415Z,4.22
2023-02-12T02:39:20.951Z,4.17
2023-02-12T02:41:56.396Z,4.16
2023-02-12T02:44:32.445Z,4.17
2023-02-12T02:47:06.230Z,4.14
2023-02-12T02:49:40.387Z,4.12
2023-02-12T02:52:11.724Z,4.06
2023-02-12T02:54:44.758Z,4.05
2023-02-12T02:57:16.946Z,4.02
2023-02-12T02:59:50.564Z,4.05
2023-02-12T03:02:25.990Z,3.95
2023-02-12T03:04:56.685Z,3.94
2023-02-12T03:07:28.841Z,3.93
2023-02-12T03:10:02.791Z,3.94
2023-02-12T03:12:35.125Z,3.93
2023-02-12T03:15:09.066Z,3.90
2023-02-12T03:17:41.961Z,3.86
2023-02-12T03:20:15.896Z,3.84
2023-02-12T03:22:49.136Z,3.81
2023-02-12T03:25:23.332Z,3.82
2023-02-12T03:27:57.873Z,3.77
2023-02-12T03:30:30.472Z,3.64
2023-02-12T03:33:09.209Z,3.52
2023-02-12T03:35:42.912Z,3.58
2023-02-12T03:38:20.364Z,3.61
2023-02-12T03:40:56.930Z,3.59
2023-02-12T03:43:31.108Z,3.56
2023-02-12T03:46:04.885Z,3.48
2023-02-12T03:48:42.259Z,3.52
2023-02-12T03:51:17.901Z,3.57
2023-02-12T03:53:45.681Z,3.56
2023-02-12T03:56:18.650Z,3.57
2023-02-12T03:58:46.680Z,3.61
2023-02-12T04:01:15.481Z,3.59
2023-02-12T04:03:44.867Z,3.62
2023-02-12T04:06:21.363Z,3.64
2023-02-12T04:08:49.181Z,3.63
2023-02-12T04:11:27.277Z,3.66
2023-02-12T04:14:09.178Z,3.61
2023-02-12T04:16:43.023Z,3.67
2023-02-12T04:19:16.112Z,3.69
2023-02-12T04:21:57.744Z,3.66
2023-02-12T04:24:36.866Z,3.65
2023-02-12T04:27:14.276Z,3.77
2023-02-12T04:29:49.151Z,3.80
2023-02-12T04:32:21.460Z,3.76
2023-02-12T04:34:58.292Z,3.61
2023-02-12T04:37:31.288Z,3.51
2023-02-12T04:40:00.860Z,3.56
2023-02-12T04:42:28.765Z,3.55
2023-02-12T04:44:56.425Z,3.57
2023-02-12T04:47:24.588Z,3.60
2023-02-12T04:49:53.915Z,3.70
2023-02-12T04:52:21.795Z,3.68
2023-02-12T04:54:49.346Z,3.69
2023-02-12T04:57:17.444Z,3.64
2023-02-12T04:59:45.023Z,3.67
2023-02-12T05:02:12.793Z,3.66
2023-02-12T05:04:40.480Z,3.78
2023-02-12T05:07:09.934Z,3.76
2023-02-12T05:09:37.732Z,3.70
2023-02-12T05:12:06.691Z,3.76
2023-02-12T05:14:34.382Z,3.75
2023-02-12T05:17:02.691Z,3.75
2023-02-12T05:19:30.299Z,3.75
2023-02-12T05:21:58.112Z,3.74
2023-02-12T05:24:27.087Z,3.76
2023-02-12T05:26:55.460Z,3.78
2023-02-12T05:29:23.145Z,3.79
2023-02-12T05:31:50.864Z,3.83
2023-02-12T05:34:18.554Z,3.80
2023-02-12T05:36:46.991Z,3.82
2023-02-12T05:39:14.598Z,3.79
2023-02-12T05:41:44.411Z,3.76
2023-02-12T05:44:12.380Z,3.75
2023-02-12T05:46:40.700Z,3.74
2023-02-12T05:49:08.740Z,3.76
2023-02-12T05:51:37.675Z,3.77
2023-02-12T05:54:07.444Z,3.72
2023-02-12T05:56:37.313Z,3.76
2023-02-12T05:59:08.700Z,3.77
2023-02-12T06:01:38.886Z,3.78
2023-02-12T06:04:12.391Z,3.79
2023-02-12T06:06:42.034Z,3.78
2023-02-12T06:09:10.943Z,3.80
2023-02-12T06:11:39.989Z,3.87
2023-02-12T06:14:10.523Z,3.86
2023-02-12T06:16:38.329Z,3.86
2023-02-12T06:19:07.336Z,3.88
2023-02-12T06:21:35.264Z,3.81
2023-02-12T06:24:03.199Z,3.75
2023-02-12T06:26:30.862Z,3.70
2023-02-12T06:28:58.742Z,3.71
2023-02-12T06:31:30.618Z,3.74
2023-02-12T06:34:02.411Z,3.71
2023-02-12T06:36:30.340Z,3.63
2023-02-12T06:38:58.614Z,3.62
2023-02-12T06:41:26.193Z,3.63
2023-02-12T06:43:55.004Z,3.66
2023-02-12T06:46:22.692Z,3.64
2023-02-12T06:48:54.679Z,3.65
2023-02-12T06:51:23.497Z,3.72
2023-02-12T06:53:53.710Z,3.76
2023-02-12T06:56:22.785Z,3.74
2023-02-12T06:58:55.172Z,3.76
2023-02-12T07:01:25.119Z,3.78
2023-02-12T07:03:57.549Z,3.86
2023-02-12T07:06:25.933Z,3.89
2023-02-12T07:08:53.906Z,3.94
2023-02-12T07:11:24.735Z,4.00
2023-02-12T07:13:52.705Z,4.04
2023-02-12T07:16:20.609Z,4.06
2023-02-12T07:18:48.258Z,4.08
2023-02-12T07:21:18.192Z,4.10
2023-02-12T07:23:50.800Z,4.14
2023-02-12T07:26:19.607Z,4.16
2023-02-12T07:28:47.735Z,4.20
2023-02-12T07:31:17.979Z,4.24
2023-02-12T07:33:47.097Z,4.29
2023-02-12T07:36:18.633Z,4.35
2023-02-12T07:38:46.756Z,4.36
2023-02-12T07:41:16.795Z,4.40
2023-02-12T07:43:47.085Z,4.44
2023-02-12T07:46:18.021Z,4.49
2023-02-12T07:48:46.044Z,4.54
2023-02-12T07:51:16.100Z,4.59
2023-02-12T07:53:45.597Z,4.65
2023-02-12T07:56:15.706Z,4.73
2023-02-12T07:58:45.482Z,4.79
2023-02-12T08:01:18.859Z,4.87
2023-02-12T08:03:48.464Z,4.95
2023-02-12T08:06:18.928Z,5.04
2023-02-12T08:08:49.134Z,5.13
2023-02-12T08:11:18.769Z,5.20
2023-02-12T08:13:46.945Z,5.28
2023-02-12T08:16:17.663Z,5.35
2023-02-12T08:18:46.234Z,5.48
2023-02-12T08:21:15.479Z,5.58
2023-02-12T08:23:43.313Z,5.69
2023-02-12T08:26:14.725Z,5.82
2023-02-12T08:28:45.837Z,5.91
2023-02-12T08:31:15.105Z,6.02
2023-02-12T08:33:42.906Z,6.16
2023-02-12T08:36:12.529Z,6.24
2023-02-12T08:38:40.611Z,6.40
2023-02-12T08:41:10.450Z,6.71
2023-02-12T08:43:40.201Z,6.99
2023-02-12T08:46:12.487Z,7.36
2023-02-12T08:48:40.867Z,7.53
2023-02-12T08:51:11.112Z,8.11
2023-02-12T08:53:39.870Z,8.40
2023-02-12T08:56:08.810Z,8.53
2023-02-12T08:58:37.474Z,8.57
2023-02-12T09:01:11.167Z,8.75
2023-02-12T09:03:39.042Z,8.95
2023-02-12T09:06:08.888Z,9.16
2023-02-12T09:08:37.328Z,9.48
2023-02-12T09:11:06.845Z,9.74
2023-02-12T09:13:34.766Z,9.91
2023-02-12T09:16:03.531Z,10.06
2023-02-12T09:18:32.935Z,10.32
2023-02-12T09:21:03.608Z,10.53
2023-02-12T09:23:31.678Z,10.62
2023-02-12T09:26:00.144Z,10.98
2023-02-12T09:28:27.855Z,11.28
2023-02-12T09:30:55.829Z,11.28
2023-02-12T09:33:25.166Z,11.55
2023-02-12T09:35:54.872Z,11.61
2023-02-12T09:38:22.689Z,12.05
2023-02-12T09:41:03.654Z,12.26
2023-02-12T09:43:38.117Z,11.82
2023-02-12T09:46:16.453Z,11.14
2023-02-12T09:48:54.738Z,11.31
2023-02-12T09:51:24.355Z,12.57
2023-02-12T09:54:01.737Z,12.62
2023-02-12T09:56:29.552Z,12.60
2023-02-12T09:59:00.896Z,13.17
2023-02-12T10:01:29.870Z,13.65
2023-02-12T10:03:57.748Z,14.15
2023-02-12T10:06:30.791Z,13.97
2023-02-12T10:09:13.548Z,12.64
2023-02-12T10:12:04.704Z,11.81
2023-02-12T10:15:16.196Z,11.18
2023-02-12T10:17:48.887Z,10.52
2023-02-12T10:20:34.339Z,10.19
2023-02-12T10:23:22.248Z,10.07
2023-02-12T10:25:54.441Z,9.60
2023-02-12T10:28:27.011Z,9.70
2023-02-12T10:30:58.708Z,9.68
2023-02-12T10:33:31.065Z,9.53
2023-02-12T10:36:06.254Z,9.45
2023-02-12T10:38:40.412Z,9.39
2023-02-12T10:41:08.334Z,9.96
2023-02-12T10:43:35.952Z,10.17
2023-02-12T10:46:04.108Z,10.54
2023-02-12T10:48:36.169Z,10.54
2023-02-12T10:51:16.866Z,10.51
2023-02-12T10:53:46.858Z,10.46
2023-02-12T10:56:21.358Z,10.47
2023-02-12T10:58:54.748Z,11.05
2023-02-12T11:01:27.220Z,11.49
2023-02-12T11:03:55.827Z,11.61
2023-02-12T11:06:27.967Z,11.47
2023-02-12T11:08:57.664Z,11.53
2023-02-12T11:11:30.614Z,11.85
2023-02-12T11:14:00.983Z,13.02
2023-02-12T11:16:34.503Z,13.77
2023-02-12T11:19:05.651Z,13.59
2023-02-12T11:21:34.479Z,12.90
2023-02-12T11:24:30.608Z,12.92
2023-02-12T11:27:24.035Z,12.80
2023-02-12T11:30:14.040Z,13.20
2023-02-12T11:32:42.962Z,13.14
2023-02-12T11:35:18.229Z,12.94
2023-02-12T11:37:47.959Z,13.14
2023-02-12T11:40:22.566Z,13.34
2023-02-12T11:42:53.942Z,13.12
2023-02-12T11:45:25.625Z,13.41
2023-02-12T11:47:53.742Z,12.97
2023-02-12T11:50:27.877Z,12.62
2023-02-12T11:53:00.310Z,12.70
2023-02-12T11:55:33.773Z,12.49
2023-02-12T11:58:15.219Z,12.30
2023-02-12T12:00:47.798Z,12.20
2023-02-12T12:03:22.640Z,12.07
2023-02-12T12:05:52.765Z,11.92
2023-02-12T12:08:26.026Z,12.46
2023-02-12T12:10:59.608Z,12.78
2023-02-12T12:13:34.687Z,12.61
2023-02-12T12:16:29.214Z,12.03
2023-02-12T12:19:21.843Z,11.44
2023-02-12T12:21:58.278Z,11.11
2023-02-12T12:24:31.762Z,11.05
2023-02-12T12:27:14.562Z,11.02
2023-02-12T12:29:53.649Z,11.52
2023-02-12T12:32:25.010Z,11.75
2023-02-12T12:34:53.231Z,11.77
2023-02-12T12:37:33.813Z,11.87
2023-02-12T12:40:26.940Z,11.94
2023-02-12T12:43:09.602Z,12.31
2023-02-12T12:45:55.534Z,13.03
2023-02-12T12:48:36.814Z,13.11
2023-02-12T12:51:19.642Z,13.24
2023-02-12T12:54:00.756Z,12.90
2023-02-12T12:56:50.228Z,12.85
2023-02-12T12:59:58.996Z,12.88
2023-02-12T13:03:14.071Z,12.59
2023-02-12T13:06:23.652Z,12.45
2023-02-12T13:09:04.787Z,12.18
2023-02-12T13:11:42.488Z,12.51
2023-02-12T13:14:28.847Z,12.54
2023-02-12T13:17:05.497Z,12.28
2023-02-12T13:19:47.522Z,12.43
2023-02-12T13:22:20.016Z,12.02
2023-02-12T13:24:53.105Z,11.66
2023-02-12T13:27:23.926Z,11.81
2023-02-12T13:29:55.785Z,11.77
2023-02-12T13:32:29.484Z,11.80
2023-02-12T13:34:59.127Z,11.75
2023-02-12T13:37:37.690Z,11.64
2023-02-12T13:40:08.100Z,11.49
2023-02-12T13:42:50.333Z,11.29
2023-02-12T13:45:28.726Z,11.43
2023-02-12T13:48:17.364Z,11.27
2023-02-12T13:50:57.275Z,11.33
2023-02-12T13:53:33.351Z,11.36
2023-02-12T13:56:08.948Z,11.42
2023-02-12T13:58:50.466Z,11.27
2023-02-12T14:01:39.565Z,11.18
2023-02-12T14:04:31.696Z,10.95
2023-02-12T14:07:03.487Z,11.02
2023-02-12T14:09:36.714Z,10.91
2023-02-12T14:12:07.630Z,10.72
2023-02-12T14:14:38.597Z,10.76
2023-02-12T14:17:41.212Z,10.68
2023-02-12T14:20:23.187Z,10.76
2023-02-12T14:23:04.100Z,10.90
2023-02-12T14:25:44.577Z,10.91
2023-02-12T14:28:24.341Z,10.85
2023-02-12T14:31:37.871Z,10.82
2023-02-12T14:34:52.206Z,10.88
2023-02-12T14:37:37.761Z,10.92
2023-02-12T14:40:31.705Z,11.07
2023-02-12T14:42:59.935Z,11.24
2023-02-12T14:45:30.782Z,10.92
2023-02-12T14:47:58.794Z,11.07
2023-02-12T14:50:31.544Z,11.13
2023-02-12T14:53:06.895Z,10.91
2023-02-12T14:55:36.762Z,10.47
2023-02-12T14:58:08.056Z,10.23
2023-02-12T15:00:39.322Z,10.19
2023-02-12T15:03:18.805Z,10.13
2023-02-12T15:05:53.809Z,10.08
2023-02-12T15:08:31.798Z,10.35
2023-02-12T15:11:10.239Z,10.64
2023-02-12T15:13:48.782Z,10.56
2023-02-12T15:16:25.987Z,10.46
2023-02-12T15:19:00.795Z,9.99
2023-02-12T15:21:31.609Z,9.88
2023-02-12T15:24:06.359Z,9.79
2023-02-12T15:26:37.907Z,9.69
2023-02-12T15:29:06.580Z,9.67
2023-02-12T15:31:35.334Z,9.71
2023-02-12T15:34:05.789Z,9.56
2023-02-12T15:36:35.116Z,9.41
2023-02-12T15:39:06.279Z,9.25
2023-02-12T15:41:40.184Z,9.19
2023-02-12T15:44:30.393Z,9.29
2023-02-12T15:47:00.795Z,9.51
2023-02-12T15:49:31.458Z,9.71
2023-02-12T15:52:02.804Z,9.75
2023-02-12T15:54:32.754Z,9.61
2023-02-12T15:57:01.845Z,9.45
2023-02-12T15:59:29.642Z,9.45
2023-02-12T16:02:00.767Z,9.43
2023-02-12T16:04:31.285Z,9.40
2023-02-12T16:07:00.150Z,9.41
2023-02-12T16:09:32.585Z,9.43
2023-02-12T16:12:02.425Z,9.44
2023-02-12T16:14:40.629Z,9.32
2023-02-12T16:17:22.065Z,9.10
2023-02-12T16:19:57.209Z,8.90
2023-02-12T16:22:29.273Z,8.69
2023-02-12T16:24:59.712Z,8.50
2023-02-12T16:27:31.045Z,8.32
2023-02-12T16:30:01.039Z,8.12
2023-02-12T16:32:33.748Z,7.89
2023-02-12T16:35:04.675Z,7.72
2023-02-12T16:37:45.441Z,7.56
2023-02-12T16:40:37.519Z,7.38
2023-02-12T16:43:24.014Z,7.20
2023-02-12T16:45:52.824Z,7.10
2023-02-12T16:48:25.477Z,7.04
2023-02-12T16:50:56.344Z,6.94
2023-02-12T16:53:43.441Z,6.87
2023-02-12T16:56:18.116Z,6.77
2023-02-12T16:58:48.407Z,6.67
2023-02-12T17:01:19.250Z,6.46
2023-02-12T17:03:50.283Z,6.35
2023-02-12T17:06:20.071Z,6.16
2023-02-12T17:08:47.752Z,6.12
2023-02-12T17:11:17.907Z,6.04
2023-02-12T17:13:46.286Z,5.93
2023-02-12T17:16:18.878Z,5.87
2023-02-12T17:18:56.256Z,5.82
2023-02-12T17:21:27.659Z,5.79
2023-02-12T17:23:55.289Z,5.71
2023-02-12T17:26:25.252Z,5.66
2023-02-12T17:28:52.860Z,5.57
2023-02-12T17:31:21.216Z,5.53
2023-02-12T17:33:49.330Z,5.47
2023-02-12T17:36:16.936Z,5.41
2023-02-12T17:38:44.577Z,5.34
2023-02-12T17:41:12.786Z,5.29
2023-02-12T17:43:41.723Z,5.20
2023-02-12T17:46:11.833Z,5.04
2023-02-12T17:48:40.383Z,4.95
2023-02-12T17:51:09.807Z,4.89
2023-02-12T17:53:37.750Z,4.91
2023-02-12T17:56:06.118Z,4.83
2023-02-12T17:58:33.764Z,4.82
2023-02-12T18:01:07.159Z,4.76
2023-02-12T18:03:35.171Z,4.76
2023-02-12T18:06:03.018Z,4.77
2023-02-12T18:08:32.109Z,4.77
2023-02-12T18:11:00.368Z,4.68
2023-02-12T18:13:29.281Z,4.65
2023-02-12T18:15:56.909Z,4.69
2023-02-12T18:18:25.865Z,4.68
2023-02-12T18:20:53.481Z,4.72
2023-02-12T18:23:21.545Z,4.78
2023-02-12T18:25:49.154Z,4.87
2023-02-12T18:28:17.154Z,4.91
2023-02-12T18:30:44.828Z,4.89
2023-02-12T18:33:13.805Z,4.84
2023-02-12T18:35:42.787Z,4.85
2023-02-12T18:38:10.541Z,4.73
2023-02-12T18:40:41.058Z,4.66
2023-02-12T18:43:08.697Z,4.49
2023-02-12T18:45:36.303Z,4.45
2023-02-12T18:48:06.768Z,4.36
2023-02-12T18:50:34.342Z,4.28
2023-02-12T18:53:03.627Z,4.22
2023-02-12T18:55:31.215Z,4.13
2023-02-12T18:57:59.134Z,4.11
2023-02-12T19:00:27.542Z,4.14
2023-02-12T19:02:55.142Z,4.14
2023-02-12T19:05:22.794Z,4.08
2023-02-12T19:07:50.932Z,4.02
2023-02-12T19:10:20.013Z,3.90
2023-02-12T19:12:48.095Z,3.87
2023-02-12T19:15:15.692Z,3.89
2023-02-12T19:17:43.496Z,3.91
2023-02-12T19:20:13.427Z,3.88
2023-02-12T19:22:41.931Z,3.81
2023-02-12T19:25:10.332Z,3.74
2023-02-12T19:27:39.267Z,3.67
2023-02-12T19:30:08.322Z,3.66
2023-02-12T19:32:37.797Z,3.64
2023-02-12T19:35:05.958Z,3.61
2023-02-12T19:37:33.532Z,3.56
2023-02-12T19:40:01.825Z,3.51
2023-02-12T19:42:30.688Z,3.47
2023-02-12T19:45:00.042Z,3.40
2023-02-12T19:47:27.881Z,3.33
2023-02-12T19:49:56.122Z,3.27
2023-02-12T19:52:23.751Z,3.23
2023-02-12T19:54:51.315Z,3.18
2023-02-12T19:57:18.890Z,3.13
2023-02-12T19:59:47.163Z,3.07
2023-02-12T20:02:16.240Z,3.06
2023-02-12T20:04:44.295Z,3.04
2023-02-12T20:07:11.933Z,2.99
2023-02-12T20:09:41.006Z,2.94
2023-02-12T20:12:08.654Z,2.89
2023-02-12T20:14:36.278Z,2.94
2023-02-12T20:17:03.929Z,2.91
2023-02-12T20:19:33.764Z,2.86
2023-02-12T20:22:03.226Z,2.80
2023-02-12T20:24:33.260Z,2.74
2023-02-12T20:27:02.466Z,2.70
2023-02-12T20:29:30.338Z,2.61
2023-02-12T20:31:58.463Z,2.58
2023-02-12T20:34:26.176Z,2.62
2023-02-12T20:36:55.170Z,2.61
2023-02-12T20:39:23.346Z,2.59
2023-02-12T20:41:51.216Z,2.54
2023-02-12T20:44:21.466Z,2.61
2023-02-12T20:46:54.444Z,2.55
2023-02-12T20:49:24.429Z,2.51
2023-02-12T20:51:52.548Z,2.47
2023-02-12T20:54:21.647Z,2.46
2023-02-12T20:56:50.463Z,2.38
2023-02-12T20:59:18.658Z,2.35
2023-02-12T21:01:46.824Z,2.31
2023-02-12T21:04:17.534Z,2.31
2023-02-12T21:06:45.817Z,2.32
2023-02-12T21:09:15.833Z,2.38
2023-02-12T21:11:45.978Z,2.54
2023-02-12T21:14:22.614Z,2.78
2023-02-12T21:16:51.599Z,2.87
2023-02-12T21:19:20.279Z,2.95
2023-02-12T21:21:48.045Z,3.05
2023-02-12T21:24:18.505Z,3.10
2023-02-12T21:26:47.441Z,3.14
2023-02-12T21:29:16.140Z,3.23
2023-02-12T21:31:45.953Z,3.19
2023-02-12T21:34:16.153Z,3.13
2023-02-12T21:36:46.198Z,3.16
2023-02-12T21:39:18.809Z,3.16
2023-02-12T21:41:48.422Z,3.16
2023-02-12T21:44:18.396Z,3.11
2023-02-12T21:46:46.981Z,3.18
2023-02-12T21:49:17.806Z,3.19
2023-02-12T21:51:46.114Z,3.20
2023-02-12T21:54:16.719Z,3.22
2023-02-12T21:56:45.881Z,3.18
2023-02-12T21:59:15.402Z,3.24
2023-02-12T22:01:45.685Z,3.16
2023-02-12T22:04:14.277Z,3.22
2023-02-12T22:06:46.113Z,3.09
2023-02-12T22:09:15.452Z,3.20
2023-02-12T22:11:44.447Z,3.17
2023-02-12T22:14:16.142Z,3.12
2023-02-12T22:16:45.261Z,3.10
2023-02-12T22:19:13.114Z,3.00
2023-02-12T22:21:42.069Z,3.09
2023-02-12T22:24:11.956Z,3.19
2023-02-12T22:29:27.024Z,3.19
2023-02-12T22:31:54.712Z,3.19
2023-02-12T22:34:22.352Z,3.15
2023-02-12T22:36:50.082Z,3.12
2023-02-12T22:39:18.413Z,3.08
2023-02-12T22:41:46.467Z,3.05
2023-02-12T22:44:16.170Z,3.06
2023-02-12T22:46:45.537Z,3.06
2023-02-12T22:49:13.329Z,3.05
2023-02-12T22:51:41.896Z,3.03
2023-02-12T22:54:13.875Z,3.05
2023-02-12T22:56:41.966Z,3.05
2023-02-12T22:59:11.274Z,3.01
2023-02-12T23:01:39.989Z,3.04
2023-02-12T23:04:13.244Z,3.00
2023-02-12T23:06:41.049Z,2.98
2023-02-12T23:09:08.652Z,2.96
2023-02-12T23:11:37.098Z,2.88
2023-02-12T23:14:04.685Z,2.83
2023-02-12T23:16:32.989Z,2.82
2023-02-12T23:19:02.396Z,2.78
2023-02-12T23:21:33.094Z,2.77
2023-02-12T23:24:00.702Z,2.76
2023-02-12T23:26:29.276Z,2.73
2023-02-12T23:28:57.798Z,2.66
2023-02-12T23:31:26.543Z,2.67
2023-02-12T23:33:54.608Z,2.63
2023-02-12T23:36:22.706Z,2.63
2023-02-12T23:38:51.719Z,2.63
2023-02-12T23:41:20.303Z,2.67
2023-02-12T23:43:47.920Z,2.66
2023-02-12T23:46:15.706Z,2.66
2023-02-12T23:48:44.437Z,2.68
2023-02-12T23:51:13.265Z,2.62
2023-02-12T23:53:40.851Z,2.69
2023-02-12T23:56:09.949Z,2.65
2023-02-12T23:58:37.742Z,2.59
